sensor_id;sensor_type;location;lat;lon;timestamp;temperature;humidity
53926;DHT22;39836;52.754;6.866;2023-04-06T00:01:31;3.60;66.90
53926;DHT22;39836;52.754;6.866;2023-04-06T00:03:57;3.50;67.00
53926;DHT22;39836;52.754;6.866;2023-04-06T00:06:23;3.50;67.10
53926;DHT22;39836;52.754;6.866;2023-04-06T00:08:49;3.40;67.10
53926;DHT22;39836;52.754;6.866;2023-04-06T00:11:14;3.40;67.10
53926;DHT22;39836;52.754;6.866;2023-04-06T00:13:42;3.40;67.20
53926;DHT22;39836;52.754;6.866;2023-04-06T00:16:08;3.40;67.20
53926;DHT22;39836;52.754;6.866;2023-04-06T00:18:33;3.40;67.20
53926;DHT22;39836;52.754;6.866;2023-04-06T00:20:59;3.40;67.20
53926;DHT22;39836;52.754;6.866;2023-04-06T00:23:25;3.40;67.20
53926;DHT22;39836;52.754;6.866;2023-04-06T00:25:51;3.40;67.20
53926;DHT22;39836;52.754;6.866;2023-04-06T00:28:17;3.30;67.20
53926;DHT22;39836;52.754;6.866;2023-04-06T00:30:42;3.30;67.30
53926;DHT22;39836;52.754;6.866;2023-04-06T00:33:08;3.30;67.30
53926;DHT22;39836;52.754;6.866;2023-04-06T00:35:34;3.30;67.40
53926;DHT22;39836;52.754;6.866;2023-04-06T00:38:00;3.20;67.40
53926;DHT22;39836;52.754;6.866;2023-04-06T00:40:26;3.20;67.50
53926;DHT22;39836;52.754;6.866;2023-04-06T00:42:54;3.10;67.50
53926;DHT22;39836;52.754;6.866;2023-04-06T00:45:20;3.10;67.60
53926;DHT22;39836;52.754;6.866;2023-04-06T00:47:46;3.10;67.90
53926;DHT22;39836;52.754;6.866;2023-04-06T00:50:11;3.00;67.80
53926;DHT22;39836;52.754;6.866;2023-04-06T00:52:37;3.00;67.80
53926;DHT22;39836;52.754;6.866;2023-04-06T00:55:03;2.90;67.90
53926;DHT22;39836;52.754;6.866;2023-04-06T00:57:29;2.90;67.90
53926;DHT22;39836;52.754;6.866;2023-04-06T00:59:56;2.90;67.90
53926;DHT22;39836;52.754;6.866;2023-04-06T01:02:22;2.80;67.90
53926;DHT22;39836;52.754;6.866;2023-04-06T01:04:48;2.80;68.00
53926;DHT22;39836;52.754;6.866;2023-04-06T01:07:14;2.70;68.20
53926;DHT22;39836;52.754;6.866;2023-04-06T01:09:40;2.70;68.60
53926;DHT22;39836;52.754;6.866;2023-04-06T01:12:07;2.60;69.00
53926;DHT22;39836;52.754;6.866;2023-04-06T01:14:33;2.60;68.90
53926;DHT22;39836;52.754;6.866;2023-04-06T01:17:00;2.50;68.70
53926;DHT22;39836;52.754;6.866;2023-04-06T01:19:26;2.50;68.50
53926;DHT22;39836;52.754;6.866;2023-04-06T01:21:52;2.40;68.50
53926;DHT22;39836;52.754;6.866;2023-04-06T01:24:19;2.50;68.60
53926;DHT22;39836;52.754;6.866;2023-04-06T01:26:45;2.40;68.60
53926;DHT22;39836;52.754;6.866;2023-04-06T01:29:11;2.40;68.70
53926;DHT22;39836;52.754;6.866;2023-04-06T01:31:37;2.30;68.60
53926;DHT22;39836;52.754;6.866;2023-04-06T01:34:03;2.30;68.60
53926;DHT22;39836;52.754;6.866;2023-04-06T01:36:29;2.30;68.70
53926;DHT22;39836;52.754;6.866;2023-04-06T01:38:55;2.30;68.70
53926;DHT22;39836;52.754;6.866;2023-04-06T01:41:20;2.20;68.90
53926;DHT22;39836;52.754;6.866;2023-04-06T01:43:47;2.20;68.90
53926;DHT22;39836;52.754;6.866;2023-04-06T01:46:14;2.20;68.70
53926;DHT22;39836;52.754;6.866;2023-04-06T01:48:39;2.30;68.80
53926;DHT22;39836;52.754;6.866;2023-04-06T01:51:05;2.20;69.00
53926;DHT22;39836;52.754;6.866;2023-04-06T01:53:31;2.20;69.10
53926;DHT22;39836;52.754;6.866;2023-04-06T01:55:57;2.10;69.00
53926;DHT22;39836;52.754;6.866;2023-04-06T01:58:22;2.20;69.10
53926;DHT22;39836;52.754;6.866;2023-04-06T02:00:48;2.10;69.00
53926;DHT22;39836;52.754;6.866;2023-04-06T02:03:14;2.10;68.90
53926;DHT22;39836;52.754;6.866;2023-04-06T02:05:40;2.10;68.90
53926;DHT22;39836;52.754;6.866;2023-04-06T02:08:06;2.10;69.10
53926;DHT22;39836;52.754;6.866;2023-04-06T02:10:33;2.10;69.00
53926;DHT22;39836;52.754;6.866;2023-04-06T02:12:59;2.10;69.20
53926;DHT22;39836;52.754;6.866;2023-04-06T02:15:25;2.00;69.10
53926;DHT22;39836;52.754;6.866;2023-04-06T02:17:51;2.00;69.10
53926;DHT22;39836;52.754;6.866;2023-04-06T02:20:17;2.00;69.10
53926;DHT22;39836;52.754;6.866;2023-04-06T02:22:43;2.00;69.20
53926;DHT22;39836;52.754;6.866;2023-04-06T02:25:09;1.90;69.20
53926;DHT22;39836;52.754;6.866;2023-04-06T02:27:35;1.90;69.20
53926;DHT22;39836;52.754;6.866;2023-04-06T02:30:02;2.00;69.30
53926;DHT22;39836;52.754;6.866;2023-04-06T02:32:27;1.80;69.40
53926;DHT22;39836;52.754;6.866;2023-04-06T02:34:53;1.80;69.40
53926;DHT22;39836;52.754;6.866;2023-04-06T02:37:19;1.80;69.50
53926;DHT22;39836;52.754;6.866;2023-04-06T02:39:45;1.80;69.50
53926;DHT22;39836;52.754;6.866;2023-04-06T02:42:10;1.70;69.50
53926;DHT22;39836;52.754;6.866;2023-04-06T02:44:36;1.70;69.60
53926;DHT22;39836;52.754;6.866;2023-04-06T02:47:02;1.70;69.50
53926;DHT22;39836;52.754;6.866;2023-04-06T02:49:28;1.70;69.60
53926;DHT22;39836;52.754;6.866;2023-04-06T02:51:53;1.60;69.60
53926;DHT22;39836;52.754;6.866;2023-04-06T02:54:19;1.60;69.60
53926;DHT22;39836;52.754;6.866;2023-04-06T02:56:45;1.60;69.70
53926;DHT22;39836;52.754;6.866;2023-04-06T02:59:10;1.60;69.70
53926;DHT22;39836;52.754;6.866;2023-04-06T03:01:36;1.50;69.80
53926;DHT22;39836;52.754;6.866;2023-04-06T03:04:02;1.60;69.80
53926;DHT22;39836;52.754;6.866;2023-04-06T03:06:28;1.50;69.80
53926;DHT22;39836;52.754;6.866;2023-04-06T03:08:53;1.50;69.80
53926;DHT22;39836;52.754;6.866;2023-04-06T03:11:19;1.50;69.80
53926;DHT22;39836;52.754;6.866;2023-04-06T03:13:46;1.60;69.80
53926;DHT22;39836;52.754;6.866;2023-04-06T03:16:11;1.50;69.80
53926;DHT22;39836;52.754;6.866;2023-04-06T03:18:37;1.50;69.90
53926;DHT22;39836;52.754;6.866;2023-04-06T03:21:03;1.50;70.00
53926;DHT22;39836;52.754;6.866;2023-04-06T03:23:28;1.40;70.20
53926;DHT22;39836;52.754;6.866;2023-04-06T03:25:54;1.40;70.20
53926;DHT22;39836;52.754;6.866;2023-04-06T03:28:20;1.50;70.30
53926;DHT22;39836;52.754;6.866;2023-04-06T03:30:46;1.30;70.30
53926;DHT22;39836;52.754;6.866;2023-04-06T03:33:12;1.30;70.70
53926;DHT22;39836;52.754;6.866;2023-04-06T03:35:37;1.30;70.90
53926;DHT22;39836;52.754;6.866;2023-04-06T03:38:04;1.30;71.30
53926;DHT22;39836;52.754;6.866;2023-04-06T03:40:33;1.40;71.10
53926;DHT22;39836;52.754;6.866;2023-04-06T03:42:59;1.40;71.30
53926;DHT22;39836;52.754;6.866;2023-04-06T03:45:25;1.30;70.90
53926;DHT22;39836;52.754;6.866;2023-04-06T03:47:50;1.30;70.80
53926;DHT22;39836;52.754;6.866;2023-04-06T03:50:16;1.40;71.70
53926;DHT22;39836;52.754;6.866;2023-04-06T03:52:42;1.40;71.80
53926;DHT22;39836;52.754;6.866;2023-04-06T03:55:08;1.30;71.70
53926;DHT22;39836;52.754;6.866;2023-04-06T03:57:33;1.30;71.20
53926;DHT22;39836;52.754;6.866;2023-04-06T03:59:59;1.20;71.20
53926;DHT22;39836;52.754;6.866;2023-04-06T04:02:25;1.20;71.80
53926;DHT22;39836;52.754;6.866;2023-04-06T04:04:51;1.20;71.30
53926;DHT22;39836;52.754;6.866;2023-04-06T04:07:16;1.20;71.10
53926;DHT22;39836;52.754;6.866;2023-04-06T04:09:42;1.20;71.20
53926;DHT22;39836;52.754;6.866;2023-04-06T04:12:08;1.20;71.40
53926;DHT22;39836;52.754;6.866;2023-04-06T04:14:33;1.20;71.20
53926;DHT22;39836;52.754;6.866;2023-04-06T04:16:59;1.20;71.20
53926;DHT22;39836;52.754;6.866;2023-04-06T04:19:25;1.20;71.20
53926;DHT22;39836;52.754;6.866;2023-04-06T04:21:51;1.20;71.20
53926;DHT22;39836;52.754;6.866;2023-04-06T04:24:16;1.10;71.10
53926;DHT22;39836;52.754;6.866;2023-04-06T04:26:42;1.10;71.10
53926;DHT22;39836;52.754;6.866;2023-04-06T04:29:08;1.10;71.20
53926;DHT22;39836;52.754;6.866;2023-04-06T04:31:33;1.10;71.20
53926;DHT22;39836;52.754;6.866;2023-04-06T04:34:00;1.10;71.20
53926;DHT22;39836;52.754;6.866;2023-04-06T04:36:26;1.00;71.20
53926;DHT22;39836;52.754;6.866;2023-04-06T04:38:54;1.00;71.20
53926;DHT22;39836;52.754;6.866;2023-04-06T04:41:20;1.00;71.20
53926;DHT22;39836;52.754;6.866;2023-04-06T04:43:46;1.00;71.30
53926;DHT22;39836;52.754;6.866;2023-04-06T04:46:11;0.90;71.30
53926;DHT22;39836;52.754;6.866;2023-04-06T04:48:37;1.00;71.30
53926;DHT22;39836;52.754;6.866;2023-04-06T04:51:04;1.00;71.30
53926;DHT22;39836;52.754;6.866;2023-04-06T04:53:30;1.00;71.20
53926;DHT22;39836;52.754;6.866;2023-04-06T04:55:56;1.00;71.20
53926;DHT22;39836;52.754;6.866;2023-04-06T04:58:21;1.00;71.20
53926;DHT22;39836;52.754;6.866;2023-04-06T05:00:47;0.90;71.20
53926;DHT22;39836;52.754;6.866;2023-04-06T05:03:20;1.00;71.20
53926;DHT22;39836;52.754;6.866;2023-04-06T05:05:47;0.90;71.20
53926;DHT22;39836;52.754;6.866;2023-04-06T05:08:13;0.90;71.20
53926;DHT22;39836;52.754;6.866;2023-04-06T05:10:39;0.90;71.30
53926;DHT22;39836;52.754;6.866;2023-04-06T05:13:04;0.90;71.30
53926;DHT22;39836;52.754;6.866;2023-04-06T05:15:31;0.90;71.30
53926;DHT22;39836;52.754;6.866;2023-04-06T05:17:57;0.90;71.30
53926;DHT22;39836;52.754;6.866;2023-04-06T05:20:22;0.90;71.40
53926;DHT22;39836;52.754;6.866;2023-04-06T05:22:48;1.00;71.40
53926;DHT22;39836;52.754;6.866;2023-04-06T05:25:14;1.00;71.40
53926;DHT22;39836;52.754;6.866;2023-04-06T05:27:41;1.00;71.40
53926;DHT22;39836;52.754;6.866;2023-04-06T05:30:07;1.00;71.40
53926;DHT22;39836;52.754;6.866;2023-04-06T05:32:33;1.10;71.40
53926;DHT22;39836;52.754;6.866;2023-04-06T05:34:59;1.10;71.40
53926;DHT22;39836;52.754;6.866;2023-04-06T05:37:25;1.10;71.80
53926;DHT22;39836;52.754;6.866;2023-04-06T05:39:51;1.10;71.50
53926;DHT22;39836;52.754;6.866;2023-04-06T05:42:16;1.20;71.50
53926;DHT22;39836;52.754;6.866;2023-04-06T05:44:42;1.30;71.70
53926;DHT22;39836;52.754;6.866;2023-04-06T05:47:08;1.30;71.70
53926;DHT22;39836;52.754;6.866;2023-04-06T05:49:34;1.30;71.50
53926;DHT22;39836;52.754;6.866;2023-04-06T05:52:00;1.40;71.60
53926;DHT22;39836;52.754;6.866;2023-04-06T05:54:26;1.40;72.20
53926;DHT22;39836;52.754;6.866;2023-04-06T05:56:52;1.40;72.30
53926;DHT22;39836;52.754;6.866;2023-04-06T05:59:18;1.50;71.90
53926;DHT22;39836;52.754;6.866;2023-04-06T06:01:44;1.60;72.10
53926;DHT22;39836;52.754;6.866;2023-04-06T06:04:09;1.60;72.10
53926;DHT22;39836;52.754;6.866;2023-04-06T06:06:35;1.60;71.90
53926;DHT22;39836;52.754;6.866;2023-04-06T06:09:02;1.70;71.80
53926;DHT22;39836;52.754;6.866;2023-04-06T06:11:29;1.70;71.70
53926;DHT22;39836;52.754;6.866;2023-04-06T06:13:55;1.80;71.70
53926;DHT22;39836;52.754;6.866;2023-04-06T06:16:21;1.80;71.70
53926;DHT22;39836;52.754;6.866;2023-04-06T06:18:47;1.90;71.80
53926;DHT22;39836;52.754;6.866;2023-04-06T06:21:12;2.00;72.20
53926;DHT22;39836;52.754;6.866;2023-04-06T06:23:38;2.10;72.10
53926;DHT22;39836;52.754;6.866;2023-04-06T06:26:04;2.10;72.00
53926;DHT22;39836;52.754;6.866;2023-04-06T06:28:30;2.20;71.80
53926;DHT22;39836;52.754;6.866;2023-04-06T06:30:56;2.20;71.80
53926;DHT22;39836;52.754;6.866;2023-04-06T06:33:22;2.40;71.70
53926;DHT22;39836;52.754;6.866;2023-04-06T06:35:48;2.40;71.80
53926;DHT22;39836;52.754;6.866;2023-04-06T06:38:14;2.50;72.40
53926;DHT22;39836;52.754;6.866;2023-04-06T06:40:40;2.60;71.90
53926;DHT22;39836;52.754;6.866;2023-04-06T06:43:06;2.70;71.50
53926;DHT22;39836;52.754;6.866;2023-04-06T06:45:32;2.70;72.30
53926;DHT22;39836;52.754;6.866;2023-04-06T06:47:58;2.90;72.20
53926;DHT22;39836;52.754;6.866;2023-04-06T06:50:24;2.90;71.80
53926;DHT22;39836;52.754;6.866;2023-04-06T06:52:50;3.00;71.50
53926;DHT22;39836;52.754;6.866;2023-04-06T06:55:16;3.10;72.10
53926;DHT22;39836;52.754;6.866;2023-04-06T06:57:44;3.20;72.00
53926;DHT22;39836;52.754;6.866;2023-04-06T07:00:12;3.30;71.60
53926;DHT22;39836;52.754;6.866;2023-04-06T07:02:39;3.40;71.30
53926;DHT22;39836;52.754;6.866;2023-04-06T07:05:05;3.50;71.90
53926;DHT22;39836;52.754;6.866;2023-04-06T07:07:32;3.60;71.20
53926;DHT22;39836;52.754;6.866;2023-04-06T07:09:59;3.70;71.30
53926;DHT22;39836;52.754;6.866;2023-04-06T07:12:25;3.90;71.40
53926;DHT22;39836;52.754;6.866;2023-04-06T07:14:51;3.90;71.10
53926;DHT22;39836;52.754;6.866;2023-04-06T07:17:17;4.00;71.10
53926;DHT22;39836;52.754;6.866;2023-04-06T07:19:43;4.10;71.20
53926;DHT22;39836;52.754;6.866;2023-04-06T07:22:08;4.20;71.60
53926;DHT22;39836;52.754;6.866;2023-04-06T07:24:34;4.40;71.10
53926;DHT22;39836;52.754;6.866;2023-04-06T07:27:00;4.50;71.10
53926;DHT22;39836;52.754;6.866;2023-04-06T07:29:26;4.60;70.70
53926;DHT22;39836;52.754;6.866;2023-04-06T07:31:52;4.70;71.20
53926;DHT22;39836;52.754;6.866;2023-04-06T07:34:18;4.90;71.50
53926;DHT22;39836;52.754;6.866;2023-04-06T07:36:44;4.80;70.70
53926;DHT22;39836;52.754;6.866;2023-04-06T07:39:10;5.00;70.90
53926;DHT22;39836;52.754;6.866;2023-04-06T07:41:36;5.10;70.90
53926;DHT22;39836;52.754;6.866;2023-04-06T07:44:02;5.10;70.50
53926;DHT22;39836;52.754;6.866;2023-04-06T07:46:28;5.30;71.20
53926;DHT22;39836;52.754;6.866;2023-04-06T07:48:56;5.40;71.10
53926;DHT22;39836;52.754;6.866;2023-04-06T07:51:21;5.50;70.60
53926;DHT22;39836;52.754;6.866;2023-04-06T07:53:47;5.50;70.10
53926;DHT22;39836;52.754;6.866;2023-04-06T07:56:13;5.70;70.60
53926;DHT22;39836;52.754;6.866;2023-04-06T07:58:40;5.80;70.30
53926;DHT22;39836;52.754;6.866;2023-04-06T08:01:06;5.80;70.30
53926;DHT22;39836;52.754;6.866;2023-04-06T08:03:34;6.00;70.30
53926;DHT22;39836;52.754;6.866;2023-04-06T08:06:00;6.20;70.40
53926;DHT22;39836;52.754;6.866;2023-04-06T08:08:26;6.30;70.70
53926;DHT22;39836;52.754;6.866;2023-04-06T08:10:52;6.50;70.30
53926;DHT22;39836;52.754;6.866;2023-04-06T08:13:17;6.60;70.30
53926;DHT22;39836;52.754;6.866;2023-04-06T08:15:43;6.70;70.40
53926;DHT22;39836;52.754;6.866;2023-04-06T08:18:09;6.80;70.10
53926;DHT22;39836;52.754;6.866;2023-04-06T08:20:35;7.00;70.30
53926;DHT22;39836;52.754;6.866;2023-04-06T08:23:01;7.20;70.50
53926;DHT22;39836;52.754;6.866;2023-04-06T08:25:27;7.30;69.80
53926;DHT22;39836;52.754;6.866;2023-04-06T08:27:52;7.40;69.60
53926;DHT22;39836;52.754;6.866;2023-04-06T08:30:18;7.40;69.70
53926;DHT22;39836;52.754;6.866;2023-04-06T08:32:45;7.40;69.90
53926;DHT22;39836;52.754;6.866;2023-04-06T08:35:11;7.50;69.40
53926;DHT22;39836;52.754;6.866;2023-04-06T08:37:37;7.60;69.40
53926;DHT22;39836;52.754;6.866;2023-04-06T08:40:04;7.60;69.60
53926;DHT22;39836;52.754;6.866;2023-04-06T08:42:32;7.70;69.40
53926;DHT22;39836;52.754;6.866;2023-04-06T08:44:59;8.00;69.50
53926;DHT22;39836;52.754;6.866;2023-04-06T08:47:25;8.20;69.50
53926;DHT22;39836;52.754;6.866;2023-04-06T08:49:52;8.40;69.50
53926;DHT22;39836;52.754;6.866;2023-04-06T08:52:19;8.50;69.60
53926;DHT22;39836;52.754;6.866;2023-04-06T08:54:46;8.80;69.70
53926;DHT22;39836;52.754;6.866;2023-04-06T08:57:12;8.90;69.00
53926;DHT22;39836;52.754;6.866;2023-04-06T08:59:39;9.00;68.60
53926;DHT22;39836;52.754;6.866;2023-04-06T09:02:06;8.90;68.50
53926;DHT22;39836;52.754;6.866;2023-04-06T09:04:35;9.00;68.60
53926;DHT22;39836;52.754;6.866;2023-04-06T09:07:02;9.10;68.70
53926;DHT22;39836;52.754;6.866;2023-04-06T09:09:27;9.10;69.00
53926;DHT22;39836;52.754;6.866;2023-04-06T09:11:53;9.20;68.80
53926;DHT22;39836;52.754;6.866;2023-04-06T09:14:38;9.20;68.20
53926;DHT22;39836;52.754;6.866;2023-04-06T09:17:06;9.50;68.80
53926;DHT22;39836;52.754;6.866;2023-04-06T09:19:31;9.60;68.50
53926;DHT22;39836;52.754;6.866;2023-04-06T09:22:05;9.70;68.50
53926;DHT22;39836;52.754;6.866;2023-04-06T09:24:49;9.80;67.70
53926;DHT22;39836;52.754;6.866;2023-04-06T09:27:15;10.00;67.50
53926;DHT22;39836;52.754;6.866;2023-04-06T09:34:03;10.60;68.50
53926;DHT22;39836;52.754;6.866;2023-04-06T09:37:56;10.60;67.70
53926;DHT22;39836;52.754;6.866;2023-04-06T15:40:47;11.30;66.60
53926;DHT22;39836;52.754;6.866;2023-04-06T15:43:51;11.10;67.10
53926;DHT22;39836;52.754;6.866;2023-04-06T15:47:07;10.90;67.50
53926;DHT22;39836;52.754;6.866;2023-04-06T16:12:44;9.90;71.70
53926;DHT22;39836;52.754;6.866;2023-04-06T17:52:38;7.80;79.70
53926;DHT22;39836;52.754;6.866;2023-04-06T17:55:58;7.80;80.30
53926;DHT22;39836;52.754;6.866;2023-04-06T17:59:41;7.70;80.00
53926;DHT22;39836;52.754;6.866;2023-04-06T18:02:32;7.80;80.10
53926;DHT22;39836;52.754;6.866;2023-04-06T18:05:27;8.30;80.60
53926;DHT22;39836;52.754;6.866;2023-04-06T18:07:52;7.90;80.60
53926;DHT22;39836;52.754;6.866;2023-04-06T18:10:23;7.70;80.70
53926;DHT22;39836;52.754;6.866;2023-04-06T18:12:49;7.70;80.60
53926;DHT22;39836;52.754;6.866;2023-04-06T18:15:15;7.60;80.70
53926;DHT22;39836;52.754;6.866;2023-04-06T18:17:42;7.60;80.80
53926;DHT22;39836;52.754;6.866;2023-04-06T18:20:08;7.60;80.70
53926;DHT22;39836;52.754;6.866;2023-04-06T18:22:34;7.60;80.60
53926;DHT22;39836;52.754;6.866;2023-04-06T18:25:02;7.60;80.50
53926;DHT22;39836;52.754;6.866;2023-04-06T18:27:28;7.60;80.70
53926;DHT22;39836;52.754;6.866;2023-04-06T18:29:54;7.60;80.90
53926;DHT22;39836;52.754;6.866;2023-04-06T18:32:19;7.60;81.20
53926;DHT22;39836;52.754;6.866;2023-04-06T18:34:45;7.60;81.30
53926;DHT22;39836;52.754;6.866;2023-04-06T18:37:11;7.60;81.10
53926;DHT22;39836;52.754;6.866;2023-04-06T18:39:37;7.60;81.10
53926;DHT22;39836;52.754;6.866;2023-04-06T18:42:03;7.60;81.30
53926;DHT22;39836;52.754;6.866;2023-04-06T18:44:29;7.60;81.00
53926;DHT22;39836;52.754;6.866;2023-04-06T18:46:58;7.50;81.10
53926;DHT22;39836;52.754;6.866;2023-04-06T18:49:24;7.50;81.20
53926;DHT22;39836;52.754;6.866;2023-04-06T18:51:50;7.50;81.10
53926;DHT22;39836;52.754;6.866;2023-04-06T18:54:15;7.50;81.40
53926;DHT22;39836;52.754;6.866;2023-04-06T18:56:41;7.50;81.40
53926;DHT22;39836;52.754;6.866;2023-04-06T18:59:07;7.50;81.50
53926;DHT22;39836;52.754;6.866;2023-04-06T19:01:37;7.50;81.90
53926;DHT22;39836;52.754;6.866;2023-04-06T19:04:07;7.40;82.00
53926;DHT22;39836;52.754;6.866;2023-04-06T19:06:35;7.40;82.00
53926;DHT22;39836;52.754;6.866;2023-04-06T19:09:01;7.40;82.10
53926;DHT22;39836;52.754;6.866;2023-04-06T19:11:29;7.40;82.00
53926;DHT22;39836;52.754;6.866;2023-04-06T19:13:55;7.40;82.10
53926;DHT22;39836;52.754;6.866;2023-04-06T19:16:21;7.40;82.00
53926;DHT22;39836;52.754;6.866;2023-04-06T19:18:47;7.40;82.00
53926;DHT22;39836;52.754;6.866;2023-04-06T19:21:20;7.40;82.10
53926;DHT22;39836;52.754;6.866;2023-04-06T19:23:48;7.40;81.60
53926;DHT22;39836;52.754;6.866;2023-04-06T19:26:15;7.40;81.50
53926;DHT22;39836;52.754;6.866;2023-04-06T19:28:42;7.40;81.40
53926;DHT22;39836;52.754;6.866;2023-04-06T19:31:09;7.40;81.60
53926;DHT22;39836;52.754;6.866;2023-04-06T19:33:35;7.40;81.50
53926;DHT22;39836;52.754;6.866;2023-04-06T19:36:03;7.50;81.60
53926;DHT22;39836;52.754;6.866;2023-04-06T19:38:30;7.40;81.50
53926;DHT22;39836;52.754;6.866;2023-04-06T19:40:57;7.40;81.80
53926;DHT22;39836;52.754;6.866;2023-04-06T19:43:23;7.40;81.80
53926;DHT22;39836;52.754;6.866;2023-04-06T19:45:49;7.40;82.20
53926;DHT22;39836;52.754;6.866;2023-04-06T19:48:14;7.40;82.10
53926;DHT22;39836;52.754;6.866;2023-04-06T19:50:40;7.40;81.90
53926;DHT22;39836;52.754;6.866;2023-04-06T19:53:06;7.30;81.80
53926;DHT22;39836;52.754;6.866;2023-04-06T19:55:33;7.30;81.90
53926;DHT22;39836;52.754;6.866;2023-04-06T19:57:59;7.40;81.90
53926;DHT22;39836;52.754;6.866;2023-04-06T20:00:25;7.30;82.20
53926;DHT22;39836;52.754;6.866;2023-04-06T20:02:50;7.30;82.40
53926;DHT22;39836;52.754;6.866;2023-04-06T20:05:16;7.30;82.30
53926;DHT22;39836;52.754;6.866;2023-04-06T20:07:42;7.30;82.10
53926;DHT22;39836;52.754;6.866;2023-04-06T20:10:08;7.30;82.00
53926;DHT22;39836;52.754;6.866;2023-04-06T20:12:35;7.30;82.10
53926;DHT22;39836;52.754;6.866;2023-04-06T20:15:01;7.30;82.40
53926;DHT22;39836;52.754;6.866;2023-04-06T20:17:26;7.30;82.10
53926;DHT22;39836;52.754;6.866;2023-04-06T20:19:52;7.30;82.00
53926;DHT22;39836;52.754;6.866;2023-04-06T20:22:19;7.30;82.00
53926;DHT22;39836;52.754;6.866;2023-04-06T20:24:44;7.30;82.30
53926;DHT22;39836;52.754;6.866;2023-04-06T20:27:13;7.30;82.10
53926;DHT22;39836;52.754;6.866;2023-04-06T20:29:41;7.20;82.10
53926;DHT22;39836;52.754;6.866;2023-04-06T20:32:08;7.30;82.30
53926;DHT22;39836;52.754;6.866;2023-04-06T20:34:34;7.20;82.50
53926;DHT22;39836;52.754;6.866;2023-04-06T20:37:00;7.20;82.60
53926;DHT22;39836;52.754;6.866;2023-04-06T20:39:26;7.20;82.90
53926;DHT22;39836;52.754;6.866;2023-04-06T20:41:52;7.20;82.90
53926;DHT22;39836;52.754;6.866;2023-04-06T20:44:18;7.20;83.10
53926;DHT22;39836;52.754;6.866;2023-04-06T20:46:46;7.10;83.10
53926;DHT22;39836;52.754;6.866;2023-04-06T20:49:13;7.10;83.10
53926;DHT22;39836;52.754;6.866;2023-04-06T20:51:38;7.20;82.80
53926;DHT22;39836;52.754;6.866;2023-04-06T20:54:07;7.10;83.00
53926;DHT22;39836;52.754;6.866;2023-04-06T20:56:33;7.20;82.50
53926;DHT22;39836;52.754;6.866;2023-04-06T20:58:59;7.20;82.50
53926;DHT22;39836;52.754;6.866;2023-04-06T21:01:35;7.20;82.30
53926;DHT22;39836;52.754;6.866;2023-04-06T21:04:01;7.10;82.20
53926;DHT22;39836;52.754;6.866;2023-04-06T21:06:28;7.20;82.20
53926;DHT22;39836;52.754;6.866;2023-04-06T21:08:54;7.10;81.90
53926;DHT22;39836;52.754;6.866;2023-04-06T21:11:20;7.10;81.80
53926;DHT22;39836;52.754;6.866;2023-04-06T21:13:46;7.10;81.90
53926;DHT22;39836;52.754;6.866;2023-04-06T21:16:11;7.10;81.80
53926;DHT22;39836;52.754;6.866;2023-04-06T21:18:38;7.10;81.80
53926;DHT22;39836;52.754;6.866;2023-04-06T21:21:04;7.00;82.00
53926;DHT22;39836;52.754;6.866;2023-04-06T21:23:30;7.00;82.10
53926;DHT22;39836;52.754;6.866;2023-04-06T21:25:56;7.00;82.20
53926;DHT22;39836;52.754;6.866;2023-04-06T21:28:25;7.00;82.20
53926;DHT22;39836;52.754;6.866;2023-04-06T21:30:54;7.00;82.30
53926;DHT22;39836;52.754;6.866;2023-04-06T21:33:21;6.90;82.40
53926;DHT22;39836;52.754;6.866;2023-04-06T21:35:46;6.90;82.30
53926;DHT22;39836;52.754;6.866;2023-04-06T21:38:13;6.90;82.50
53926;DHT22;39836;52.754;6.866;2023-04-06T21:40:38;7.00;82.60
53926;DHT22;39836;52.754;6.866;2023-04-06T21:43:04;7.00;82.80
53926;DHT22;39836;52.754;6.866;2023-04-06T21:45:30;7.00;82.90
53926;DHT22;39836;52.754;6.866;2023-04-06T21:47:57;7.00;82.90
53926;DHT22;39836;52.754;6.866;2023-04-06T21:50:23;6.90;82.90
53926;DHT22;39836;52.754;6.866;2023-04-06T21:52:49;7.00;82.80
53926;DHT22;39836;52.754;6.866;2023-04-06T21:55:14;6.90;82.70
53926;DHT22;39836;52.754;6.866;2023-04-06T21:57:40;7.00;83.00
53926;DHT22;39836;52.754;6.866;2023-04-06T22:00:07;7.00;83.00
53926;DHT22;39836;52.754;6.866;2023-04-06T22:02:37;6.90;83.00
53926;DHT22;39836;52.754;6.866;2023-04-06T22:05:05;7.00;83.00
53926;DHT22;39836;52.754;6.866;2023-04-06T22:07:31;7.00;83.10
53926;DHT22;39836;52.754;6.866;2023-04-06T22:09:57;7.00;83.00
53926;DHT22;39836;52.754;6.866;2023-04-06T22:12:23;7.00;83.20
53926;DHT22;39836;52.754;6.866;2023-04-06T22:14:49;7.00;82.80
53926;DHT22;39836;52.754;6.866;2023-04-06T22:17:14;7.00;83.10
53926;DHT22;39836;52.754;6.866;2023-04-06T22:19:40;7.00;83.20
53926;DHT22;39836;52.754;6.866;2023-04-06T22:22:06;6.90;83.10
53926;DHT22;39836;52.754;6.866;2023-04-06T22:24:32;7.00;83.20
53926;DHT22;39836;52.754;6.866;2023-04-06T22:26:57;7.00;83.30
53926;DHT22;39836;52.754;6.866;2023-04-06T22:29:23;7.00;83.20
53926;DHT22;39836;52.754;6.866;2023-04-06T22:31:48;7.00;83.30
53926;DHT22;39836;52.754;6.866;2023-04-06T22:34:14;6.90;83.20
53926;DHT22;39836;52.754;6.866;2023-04-06T22:36:40;6.90;83.00
53926;DHT22;39836;52.754;6.866;2023-04-06T22:39:05;7.00;82.80
53926;DHT22;39836;52.754;6.866;2023-04-06T22:41:31;7.00;82.90
53926;DHT22;39836;52.754;6.866;2023-04-06T22:43:57;7.00;83.00
53926;DHT22;39836;52.754;6.866;2023-04-06T22:46:22;7.00;82.90
53926;DHT22;39836;52.754;6.866;2023-04-06T22:48:48;7.00;82.80
53926;DHT22;39836;52.754;6.866;2023-04-06T22:51:14;7.00;82.90
53926;DHT22;39836;52.754;6.866;2023-04-06T22:53:40;7.00;83.00
53926;DHT22;39836;52.754;6.866;2023-04-06T22:56:05;7.00;83.00
53926;DHT22;39836;52.754;6.866;2023-04-06T22:58:31;7.00;83.10
53926;DHT22;39836;52.754;6.866;2023-04-06T23:00:57;7.00;83.10
53926;DHT22;39836;52.754;6.866;2023-04-06T23:03:22;6.90;83.10
53926;DHT22;39836;52.754;6.866;2023-04-06T23:05:48;7.00;83.30
53926;DHT22;39836;52.754;6.866;2023-04-06T23:08:14;7.00;83.30
53926;DHT22;39836;52.754;6.866;2023-04-06T23:10:40;7.00;83.20
53926;DHT22;39836;52.754;6.866;2023-04-06T23:13:08;7.00;83.10
53926;DHT22;39836;52.754;6.866;2023-04-06T23:15:34;7.00;83.30
53926;DHT22;39836;52.754;6.866;2023-04-06T23:18:00;7.00;83.30
53926;DHT22;39836;52.754;6.866;2023-04-06T23:20:26;7.00;83.20
53926;DHT22;39836;52.754;6.866;2023-04-06T23:22:52;7.00;83.20
53926;DHT22;39836;52.754;6.866;2023-04-06T23:25:17;6.90;83.10
53926;DHT22;39836;52.754;6.866;2023-04-06T23:27:43;6.90;83.30
53926;DHT22;39836;52.754;6.866;2023-04-06T23:30:09;6.90;83.20
53926;DHT22;39836;52.754;6.866;2023-04-06T23:32:35;7.00;83.10
53926;DHT22;39836;52.754;6.866;2023-04-06T23:35:01;7.00;83.00
53926;DHT22;39836;52.754;6.866;2023-04-06T23:37:27;7.00;83.00
53926;DHT22;39836;52.754;6.866;2023-04-06T23:39:52;7.00;83.00
53926;DHT22;39836;52.754;6.866;2023-04-06T23:42:18;7.00;82.80
53926;DHT22;39836;52.754;6.866;2023-04-06T23:44:44;7.00;83.00
53926;DHT22;39836;52.754;6.866;2023-04-06T23:47:09;7.00;82.80
53926;DHT22;39836;52.754;6.866;2023-04-06T23:49:36;6.90;82.80